Time;durP1;ratioP1;P1;durP2;ratioP2;P2;SDS_P1;SDS_P2;PMS_P1;PMS_P2;Temp;Humidity;BMP_temperature;BMP_pressure;BME280_temperature;BME280_humidity;BME280_pressure;Samples;Min_cycle;Max_cycle;Signal;HPM_P1;HPM_P2
2023/06/22 00:01:18;;;;;;;0.13;0.13;;;;;;;;;;5004581;28;20588;-75
2023/06/22 00:03:45;;;;;;;0.17;0.17;;;;;;;;;;5005015;28;20056;-75
2023/06/22 00:06:12;;;;;;;0.10;0.10;;;;;;;;;;5004154;28;20046;-76
2023/06/22 00:08:38;;;;;;;0.50;0.30;;;;;;;;;;5005689;28;20108;-77
2023/06/22 00:11:05;;;;;;;0.20;0.20;;;;;;;;;;5003546;28;20645;-76
2023/06/22 00:13:31;;;;;;;0.10;0.10;;;;;;;;;;5004375;28;20536;-76
2023/06/22 00:15:57;;;;;;;0.75;0.43;;;;;;;;;;5005498;28;20522;-76
2023/06/22 00:18:27;;;;;;;0.10;0.10;;;;;;;;;;5002003;28;20081;-75
2023/06/22 00:20:57;;;;;;;0.10;0.10;;;;;;;;;;5001818;28;21465;-75
2023/06/22 00:23:24;;;;;;;0.10;0.10;;;;;;;;;;5005221;28;20604;-74
2023/06/22 00:25:51;;;;;;;0.20;0.20;;;;;;;;;;5004736;28;20141;-74
2023/06/22 00:28:17;;;;;;;0.10;0.10;;;;;;;;;;5001725;28;20054;-74
2023/06/22 00:30:45;;;;;;;0.10;0.10;;;;;;;;;;5002967;28;20146;-73
2023/06/22 00:33:11;;;;;;;0.25;0.25;;;;;;;;;;5001081;28;20058;-73
2023/06/22 00:35:41;;;;;;;0.20;0.20;;;;;;;;;;4995816;28;20141;-73
2023/06/22 00:38:08;;;;;;;0.40;0.28;;;;;;;;;;4984339;28;20055;-74
2023/06/22 00:40:34;;;;;;;0.10;0.10;;;;;;;;;;4985741;28;20155;-74
2023/06/22 00:43:01;;;;;;;0.10;0.10;;;;;;;;;;4966450;28;20530;-73
2023/06/22 00:45:28;;;;;;;0.28;0.28;;;;;;;;;;4971080;28;20805;-73
2023/06/22 00:47:58;;;;;;;0.10;0.10;;;;;;;;;;4984247;28;20541;-74
2023/06/22 00:50:33;;;;;;;1.27;1.17;;;;;;;;;;4967708;28;20059;-73
2023/06/22 00:53:00;;;;;;;0.10;0.10;;;;;;;;;;4967054;28;20063;-74
2023/06/22 00:55:27;;;;;;;0.30;0.30;;;;;;;;;;4966485;28;20543;-74
2023/06/22 00:57:56;;;;;;;0.30;0.20;;;;;;;;;;4973373;28;20138;-74
2023/06/22 01:00:24;;;;;;;0.20;0.20;;;;;;;;;;4966496;28;20170;-74
2023/06/22 01:02:52;;;;;;;0.10;0.10;;;;;;;;;;4966171;28;20141;-74
2023/06/22 01:05:20;;;;;;;0.50;0.40;;;;;;;;;;4967513;28;20523;-74
2023/06/22 01:08:01;;;;;;;0.20;0.20;;;;;;;;;;4983801;28;20055;-75
2023/06/22 01:10:35;;;;;;;0.10;0.10;;;;;;;;;;4985155;28;20050;-75
2023/06/22 01:13:06;;;;;;;0.10;0.10;;;;;;;;;;4964679;28;20145;-75
2023/06/22 01:15:33;;;;;;;;;;;;;;;;;;4981732;28;20055;-74
2023/06/22 01:18:00;;;;;;;0.10;0.10;;;;;;;;;;4973569;28;45826;-75
2023/06/22 01:20:27;;;;;;;0.50;0.50;;;;;;;;;;4985462;28;20050;-74
2023/06/22 01:22:57;;;;;;;0.50;0.50;;;;;;;;;;4973449;28;20050;-74
2023/06/22 01:25:31;;;;;;;0.10;0.10;;;;;;;;;;4985200;28;20062;-74
2023/06/22 01:28:05;;;;;;;0.17;0.17;;;;;;;;;;4984150;28;20062;-74
2023/06/22 01:30:34;;;;;;;0.17;0.17;;;;;;;;;;4970240;28;20150;-74
2023/06/22 01:33:02;;;;;;;0.10;0.10;;;;;;;;;;4964880;28;20055;-74
2023/06/22 01:35:29;;;;;;;2.15;0.30;;;;;;;;;;4971854;28;20067;-73
2023/06/22 01:37:56;;;;;;;0.10;0.10;;;;;;;;;;4993247;28;20061;-75
2023/06/22 01:40:23;;;;;;;0.47;0.47;;;;;;;;;;5001858;28;20057;-73
2023/06/22 01:42:50;;;;;;;0.20;0.20;;;;;;;;;;4998674;28;20549;-75
2023/06/22 01:45:17;;;;;;;0.25;0.25;;;;;;;;;;4999151;28;20589;-74
2023/06/22 01:47:44;;;;;;;0.43;0.30;;;;;;;;;;5001925;28;20510;-73
2023/06/22 01:50:10;;;;;;;0.32;0.25;;;;;;;;;;5003569;28;20438;-74
2023/06/22 01:52:37;;;;;;;0.30;0.30;;;;;;;;;;4989326;28;20054;-75
2023/06/22 01:55:05;;;;;;;1.02;0.20;;;;;;;;;;4988169;28;20062;-73
2023/06/22 01:57:32;;;;;;;0.10;0.10;;;;;;;;;;5002158;28;20557;-74
2023/06/22 01:59:58;;;;;;;0.38;0.30;;;;;;;;;;5003221;28;20513;-73
2023/06/22 02:02:29;;;;;;;0.10;0.10;;;;;;;;;;5002554;28;20062;-72
2023/06/22 02:04:59;;;;;;;0.10;0.10;;;;;;;;;;5005084;28;20055;-73
2023/06/22 02:07:28;;;;;;;0.32;0.20;;;;;;;;;;5002741;28;20121;-72
2023/06/22 02:09:56;;;;;;;0.60;0.30;;;;;;;;;;5005146;28;20514;-73
2023/06/22 02:12:24;;;;;;;0.28;0.20;;;;;;;;;;4992594;28;20066;-72
2023/06/22 02:14:51;;;;;;;0.20;0.10;;;;;;;;;;4997113;28;20136;-73
2023/06/22 02:17:18;;;;;;;0.28;0.20;;;;;;;;;;5003580;28;20510;-73
2023/06/22 02:19:45;;;;;;;0.10;0.10;;;;;;;;;;5004943;28;20058;-74
2023/06/22 02:22:13;;;;;;;0.10;0.10;;;;;;;;;;5002192;28;20058;-74
2023/06/22 02:24:39;;;;;;;0.10;0.10;;;;;;;;;;5005083;28;20105;-74
2023/06/22 02:27:07;;;;;;;0.10;0.10;;;;;;;;;;5002292;28;20136;-73
2023/06/22 02:29:33;;;;;;;0.20;0.20;;;;;;;;;;5008627;28;20054;-73
2023/06/22 02:31:59;;;;;;;0.43;0.43;;;;;;;;;;5003322;28;20769;-73
2023/06/22 02:34:26;;;;;;;0.20;0.20;;;;;;;;;;5008596;28;20530;-74
2023/06/22 02:36:53;;;;;;;0.60;0.25;;;;;;;;;;5006531;28;20065;-73
2023/06/22 02:39:22;;;;;;;0.10;0.10;;;;;;;;;;5003835;28;20137;-73
2023/06/22 02:41:49;;;;;;;0.10;0.10;;;;;;;;;;5005658;28;20077;-76
2023/06/22 02:44:16;;;;;;;0.17;0.17;;;;;;;;;;5006226;28;20588;-75
2023/06/22 02:46:42;;;;;;;0.52;0.20;;;;;;;;;;5005779;28;20149;-73
2023/06/22 02:49:09;;;;;;;0.10;0.10;;;;;;;;;;5003001;28;20058;-74
2023/06/22 02:51:39;;;;;;;0.10;0.10;;;;;;;;;;5003979;28;20054;-74
2023/06/22 02:54:06;;;;;;;0.10;0.10;;;;;;;;;;4995487;28;20548;-74
2023/06/22 02:56:36;;;;;;;0.25;0.20;;;;;;;;;;4992828;28;20450;-74
2023/06/22 02:59:03;;;;;;;0.13;0.13;;;;;;;;;;5004829;28;20054;-74
2023/06/22 03:01:39;;;;;;;0.13;0.13;;;;;;;;;;5000886;28;20526;-74
2023/06/22 03:04:07;;;;;;;0.20;0.20;;;;;;;;;;5004219;28;20059;-74
2023/06/22 03:06:34;;;;;;;0.20;0.20;;;;;;;;;;5000902;28;20445;-75
2023/06/22 03:09:04;;;;;;;0.20;0.20;;;;;;;;;;5005245;28;20069;-74
2023/06/22 03:11:32;;;;;;;0.20;0.20;;;;;;;;;;5005590;28;20728;-75
2023/06/22 03:13:58;;;;;;;0.20;0.20;;;;;;;;;;4995803;28;20054;-75
2023/06/22 03:16:25;;;;;;;0.10;0.10;;;;;;;;;;4992264;28;20054;-74
2023/06/22 03:18:53;;;;;;;0.17;0.10;;;;;;;;;;4999565;28;20242;-74
2023/06/22 03:21:22;;;;;;;0.20;0.20;;;;;;;;;;4987540;28;20059;-74
2023/06/22 03:23:49;;;;;;;0.20;0.20;;;;;;;;;;5003247;28;20059;-74
2023/06/22 03:26:16;;;;;;;0.10;0.10;;;;;;;;;;5006030;28;20050;-74
2023/06/22 03:28:43;;;;;;;0.35;0.30;;;;;;;;;;5002941;28;20058;-75
2023/06/22 03:31:09;;;;;;;0.10;0.10;;;;;;;;;;5005821;28;20540;-75
2023/06/22 03:33:36;;;;;;;1.52;0.25;;;;;;;;;;4998027;28;20059;-75
2023/06/22 03:36:03;;;;;;;0.15;0.15;;;;;;;;;;4998856;28;20534;-75
2023/06/22 03:38:29;;;;;;;0.20;0.20;;;;;;;;;;4991574;28;20055;-75
2023/06/22 03:43:31;;;;;;;0.10;0.10;;;;;;;;;;5764702;23;20567;-77
2023/06/22 03:45:57;;;;;;;0.40;0.32;;;;;;;;;;5014878;28;20045;-76
2023/06/22 03:48:24;;;;;;;0.10;0.10;;;;;;;;;;5017491;28;20441;-75
2023/06/22 03:50:51;;;;;;;0.10;0.10;;;;;;;;;;5020271;28;20054;-74
2023/06/22 03:53:18;;;;;;;0.20;0.20;;;;;;;;;;5010360;28;20560;-74
2023/06/22 03:55:49;;;;;;;0.10;0.10;;;;;;;;;;5004791;28;20057;-77
2023/06/22 03:58:16;;;;;;;0.10;0.10;;;;;;;;;;5012164;28;20076;-73
2023/06/22 04:00:42;;;;;;;0.10;0.10;;;;;;;;;;5022146;28;20053;-73
2023/06/22 04:03:09;;;;;;;0.13;0.13;;;;;;;;;;5006913;28;20864;-74
2023/06/22 04:05:35;;;;;;;0.20;0.20;;;;;;;;;;5005884;28;20133;-74
2023/06/22 04:08:02;;;;;;;0.10;0.10;;;;;;;;;;5024425;28;20061;-74
2023/06/22 04:10:28;;;;;;;0.10;0.10;;;;;;;;;;5022452;28;20526;-74
2023/06/22 04:12:56;;;;;;;0.28;0.20;;;;;;;;;;5016961;28;20490;-74
2023/06/22 04:15:22;;;;;;;0.10;0.10;;;;;;;;;;5020670;28;20572;-76
2023/06/22 04:17:48;;;;;;;0.20;0.20;;;;;;;;;;5024101;28;20050;-75
2023/06/22 04:20:15;;;;;;;0.20;0.20;;;;;;;;;;5022409;28;20058;-74
2023/06/22 04:22:42;;;;;;;0.10;0.10;;;;;;;;;;5022227;28;20054;-76
2023/06/22 04:25:08;;;;;;;0.10;0.10;;;;;;;;;;5004208;28;20070;-75
2023/06/22 04:27:40;;;;;;;0.10;0.10;;;;;;;;;;5022124;28;20053;-75
2023/06/22 04:30:07;;;;;;;0.10;0.10;;;;;;;;;;5020514;28;20054;-77
2023/06/22 04:32:35;;;;;;;0.45;0.40;;;;;;;;;;5023186;28;20092;-75
2023/06/22 04:35:04;;;;;;;0.25;0.17;;;;;;;;;;5023005;28;20060;-76
2023/06/22 04:37:31;;;;;;;0.20;0.20;;;;;;;;;;5020945;28;20076;-75
2023/06/22 04:39:57;;;;;;;0.17;0.17;;;;;;;;;;5010671;28;20060;-74
2023/06/22 04:42:26;;;;;;;0.10;0.10;;;;;;;;;;5023222;28;20061;-76
2023/06/22 04:44:53;;;;;;;3.88;0.52;;;;;;;;;;5019140;28;20054;-75
2023/06/22 04:47:19;;;;;;;0.10;0.10;;;;;;;;;;5021222;28;20139;-76
2023/06/22 04:49:46;;;;;;;0.20;0.20;;;;;;;;;;5021945;28;20061;-76
2023/06/22 04:52:13;;;;;;;0.20;0.20;;;;;;;;;;5022964;28;20053;-76
2023/06/22 04:54:47;;;;;;;0.10;0.10;;;;;;;;;;5019714;28;20054;-75
2023/06/22 04:57:16;;;;;;;0.10;0.10;;;;;;;;;;5021771;28;20049;-76
2023/06/22 04:59:43;;;;;;;0.13;0.13;;;;;;;;;;5021560;28;20054;-75
2023/06/22 05:02:10;;;;;;;0.65;0.65;;;;;;;;;;5022246;28;20054;-77
2023/06/22 05:04:38;;;;;;;0.10;0.10;;;;;;;;;;5018797;28;20049;-75
2023/06/22 05:07:06;;;;;;;0.10;0.10;;;;;;;;;;5021713;28;20065;-75
2023/06/22 05:09:35;;;;;;;0.32;0.32;;;;;;;;;;5022780;28;20065;-76
2023/06/22 05:12:02;;;;;;;0.10;0.10;;;;;;;;;;5019760;28;20476;-75
2023/06/22 05:14:29;;;;;;;0.25;0.25;;;;;;;;;;5017447;28;20053;-76
2023/06/22 05:16:58;;;;;;;0.10;0.10;;;;;;;;;;5020949;28;20050;-76
2023/06/22 05:19:31;;;;;;;0.13;0.13;;;;;;;;;;5021981;28;20049;-78
2023/06/22 05:21:57;;;;;;;0.10;0.10;;;;;;;;;;5013190;28;20108;-76
2023/06/22 05:24:24;;;;;;;0.17;0.17;;;;;;;;;;5019126;28;20128;-75
2023/06/22 05:26:50;;;;;;;0.10;0.10;;;;;;;;;;5017266;28;20058;-75
2023/06/22 05:29:17;;;;;;;0.30;0.20;;;;;;;;;;5015487;28;20058;-78
2023/06/22 05:31:46;;;;;;;0.10;0.10;;;;;;;;;;5016083;28;20061;-75
2023/06/22 05:34:13;;;;;;;0.10;0.10;;;;;;;;;;5021805;28;20709;-76
2023/06/22 05:36:39;;;;;;;0.30;0.20;;;;;;;;;;5017335;28;20548;-76
2023/06/22 05:39:15;;;;;;;0.25;0.20;;;;;;;;;;5013442;28;20641;-76
2023/06/22 05:41:43;;;;;;;0.40;0.40;;;;;;;;;;5021669;28;20145;-75
2023/06/22 05:44:10;;;;;;;0.75;0.32;;;;;;;;;;5022452;28;20157;-75
2023/06/22 05:46:36;;;;;;;0.52;0.40;;;;;;;;;;5020081;28;20828;-74
2023/06/22 05:49:02;;;;;;;0.15;0.15;;;;;;;;;;5010555;28;20156;-74
2023/06/22 05:51:29;;;;;;;0.10;0.10;;;;;;;;;;5021998;28;20108;-76
2023/06/22 05:53:55;;;;;;;0.57;0.38;;;;;;;;;;5022214;28;20054;-76
2023/06/22 05:56:22;;;;;;;0.43;0.43;;;;;;;;;;5019682;28;20058;-75
2023/06/22 05:58:48;;;;;;;0.20;0.20;;;;;;;;;;5020226;28;20080;-77
2023/06/22 06:01:15;;;;;;;0.30;0.30;;;;;;;;;;5012823;28;20477;-77
2023/06/22 06:03:42;;;;;;;0.63;0.50;;;;;;;;;;5021491;28;20506;-76
2023/06/22 06:06:10;;;;;;;1.65;1.08;;;;;;;;;;5014844;28;20519;-76
2023/06/22 06:08:40;;;;;;;4.70;1.60;;;;;;;;;;5021197;28;20808;-75
2023/06/22 06:11:07;;;;;;;0.98;0.50;;;;;;;;;;5026196;28;20050;-76
2023/06/22 06:13:33;;;;;;;2.10;0.80;;;;;;;;;;5019326;28;20080;-76
2023/06/22 06:16:00;;;;;;;0.20;0.20;;;;;;;;;;5018609;28;20786;-76
2023/06/22 06:18:27;;;;;;;1.00;0.65;;;;;;;;;;5023330;28;20116;-76
2023/06/22 06:20:53;;;;;;;0.93;0.65;;;;;;;;;;5021856;28;20524;-76
2023/06/22 06:23:20;;;;;;;1.23;0.85;;;;;;;;;;5014163;28;20047;-76
2023/06/22 06:25:46;;;;;;;1.40;0.88;;;;;;;;;;5005814;28;20054;-76
2023/06/22 06:28:13;;;;;;;0.70;0.50;;;;;;;;;;5016277;28;20165;-74
2023/06/22 06:30:40;;;;;;;0.85;0.50;;;;;;;;;;5009764;28;20469;-74
2023/06/22 06:33:08;;;;;;;0.52;0.40;;;;;;;;;;5020291;28;20089;-75
2023/06/22 06:35:35;;;;;;;1.35;0.77;;;;;;;;;;5014147;28;20089;-74
2023/06/22 06:38:02;;;;;;;0.80;0.63;;;;;;;;;;5016211;28;20061;-75
2023/06/22 06:40:29;;;;;;;0.98;0.82;;;;;;;;;;5022595;28;20068;-77
2023/06/22 06:42:56;;;;;;;0.88;0.60;;;;;;;;;;5021819;28;20100;-74
2023/06/22 06:45:23;;;;;;;0.60;0.50;;;;;;;;;;5020271;28;20277;-77
2023/06/22 06:47:51;;;;;;;1.58;1.05;;;;;;;;;;5019057;28;20058;-74
2023/06/22 06:50:17;;;;;;;1.00;0.73;;;;;;;;;;5022217;28;20125;-74
2023/06/22 06:52:44;;;;;;;2.53;1.00;;;;;;;;;;5010251;28;20054;-74
2023/06/22 06:55:11;;;;;;;0.93;0.88;;;;;;;;;;5007071;28;20053;-74
2023/06/22 06:57:39;;;;;;;1.10;0.60;;;;;;;;;;5013118;28;20724;-74
2023/06/22 07:00:09;;;;;;;0.85;0.68;;;;;;;;;;5011894;28;20064;-73
2023/06/22 07:02:36;;;;;;;1.23;0.75;;;;;;;;;;5011303;28;20640;-73
2023/06/22 07:05:04;;;;;;;0.95;0.43;;;;;;;;;;5021431;28;20056;-73
2023/06/22 07:07:30;;;;;;;0.68;0.38;;;;;;;;;;5017946;28;20076;-73
2023/06/22 07:09:57;;;;;;;0.40;0.40;;;;;;;;;;5021201;28;21453;-73
2023/06/22 07:12:23;;;;;;;0.57;0.40;;;;;;;;;;5011436;28;20062;-72
2023/06/22 07:14:50;;;;;;;0.47;0.43;;;;;;;;;;5020015;28;20054;-74
2023/06/22 07:17:17;;;;;;;0.73;0.47;;;;;;;;;;5019784;28;20101;-73
2023/06/22 07:19:43;;;;;;;0.65;0.43;;;;;;;;;;5018497;28;20081;-72
2023/06/22 07:22:10;;;;;;;1.02;0.65;;;;;;;;;;5022739;28;20452;-72
2023/06/22 07:24:37;;;;;;;1.75;1.17;;;;;;;;;;5018413;28;20788;-73
2023/06/22 07:27:05;;;;;;;0.52;0.30;;;;;;;;;;5022436;28;20050;-74
2023/06/22 07:29:32;;;;;;;0.68;0.68;;;;;;;;;;5018052;28;20050;-73
2023/06/22 07:32:00;;;;;;;0.82;0.60;;;;;;;;;;5018688;28;20062;-72
2023/06/22 07:34:27;;;;;;;0.55;0.40;;;;;;;;;;5019434;28;20547;-72
2023/06/22 07:36:53;;;;;;;0.30;0.30;;;;;;;;;;5017598;28;20057;-72
2023/06/22 07:39:25;;;;;;;0.85;0.50;;;;;;;;;;5004880;28;20237;-73
2023/06/22 07:41:52;;;;;;;0.93;0.63;;;;;;;;;;5020421;28;20104;-72
2023/06/22 07:44:18;;;;;;;0.65;0.43;;;;;;;;;;5020692;28;20132;-72
2023/06/22 07:46:44;;;;;;;0.93;0.50;;;;;;;;;;5016173;28;20672;-72
2023/06/22 07:49:11;;;;;;;0.25;0.25;;;;;;;;;;5020997;28;20050;-72
2023/06/22 07:51:38;;;;;;;1.30;0.77;;;;;;;;;;5016595;28;20814;-72
2023/06/22 07:54:04;;;;;;;0.30;0.30;;;;;;;;;;5013217;28;20058;-72
2023/06/22 07:56:31;;;;;;;0.75;0.75;;;;;;;;;;5006926;28;20489;-72
2023/06/22 07:58:59;;;;;;;0.35;0.35;;;;;;;;;;5018086;28;20065;-73
2023/06/22 08:01:25;;;;;;;0.38;0.30;;;;;;;;;;5020281;28;20607;-73
2023/06/22 08:03:52;;;;;;;0.30;0.30;;;;;;;;;;5015064;28;20054;-72
2023/06/22 08:06:18;;;;;;;0.80;0.55;;;;;;;;;;5018875;28;20053;-72
2023/06/22 08:08:47;;;;;;;0.88;0.55;;;;;;;;;;5020388;28;20054;-72
2023/06/22 08:11:14;;;;;;;0.68;0.55;;;;;;;;;;5015738;28;20148;-73
2023/06/22 08:13:40;;;;;;;0.98;0.70;;;;;;;;;;5020778;28;20490;-72
2023/06/22 08:16:07;;;;;;;0.55;0.50;;;;;;;;;;5022228;28;20648;-73
2023/06/22 08:18:33;;;;;;;0.93;0.50;;;;;;;;;;5021615;28;20069;-72
2023/06/22 08:21:00;;;;;;;0.52;0.40;;;;;;;;;;5020855;28;20061;-72
2023/06/22 08:23:29;;;;;;;0.95;0.73;;;;;;;;;;5022038;28;20081;-73
2023/06/22 08:25:56;;;;;;;0.63;0.50;;;;;;;;;;5022602;28;20141;-74
2023/06/22 08:28:22;;;;;;;0.65;0.52;;;;;;;;;;5021252;28;20139;-73
2023/06/22 08:30:49;;;;;;;0.30;0.30;;;;;;;;;;5024177;28;20056;-73
2023/06/22 08:33:15;;;;;;;0.82;0.43;;;;;;;;;;5022077;28;20058;-72
2023/06/22 08:35:53;;;;;;;0.55;0.52;;;;;;;;;;5018530;28;20046;-74
2023/06/22 08:38:19;;;;;;;0.25;0.25;;;;;;;;;;5018912;28;20537;-73
2023/06/22 08:40:46;;;;;;;0.30;0.30;;;;;;;;;;5023319;28;20054;-73
2023/06/22 08:43:12;;;;;;;0.50;0.40;;;;;;;;;;5022246;28;20060;-73
2023/06/22 08:45:38;;;;;;;0.50;0.50;;;;;;;;;;5017651;28;20613;-72
2023/06/22 08:48:06;;;;;;;0.63;0.30;;;;;;;;;;5020192;28;20124;-72
2023/06/22 08:50:33;;;;;;;0.38;0.38;;;;;;;;;;5023813;28;20061;-72
2023/06/22 08:52:59;;;;;;;1.15;0.50;;;;;;;;;;5023208;28;20199;-72
2023/06/22 08:55:26;;;;;;;0.20;0.20;;;;;;;;;;5019767;28;21293;-73
2023/06/22 08:57:54;;;;;;;0.60;0.47;;;;;;;;;;5019019;28;20054;-73
2023/06/22 09:00:21;;;;;;;0.30;0.30;;;;;;;;;;5019246;28;20054;-72
2023/06/22 09:02:47;;;;;;;0.30;0.30;;;;;;;;;;5012915;28;20050;-73
2023/06/22 09:05:15;;;;;;;0.60;0.55;;;;;;;;;;5018857;28;20858;-74
2023/06/22 09:07:42;;;;;;;1.33;0.82;;;;;;;;;;5021870;28;20054;-72
2023/06/22 09:10:08;;;;;;;0.75;0.52;;;;;;;;;;5014584;28;20052;-74
2023/06/22 09:12:39;;;;;;;0.30;0.30;;;;;;;;;;5017672;28;20982;-73
2023/06/22 09:15:07;;;;;;;0.40;0.40;;;;;;;;;;5017482;28;20533;-73
2023/06/22 09:17:40;;;;;;;0.68;0.50;;;;;;;;;;5018854;28;20067;-72
2023/06/22 09:20:10;;;;;;;0.70;0.40;;;;;;;;;;5009885;28;20054;-72
2023/06/22 09:22:36;;;;;;;2.10;0.82;;;;;;;;;;5022893;28;20057;-73
2023/06/22 09:25:03;;;;;;;0.90;0.52;;;;;;;;;;5019357;28;20513;-72
2023/06/22 09:27:32;;;;;;;;;;;;;;;;;;5018613;28;20058;-72
2023/06/22 09:29:59;;;;;;;0.25;0.25;;;;;;;;;;5017845;28;48578;-73
2023/06/22 09:32:25;;;;;;;0.55;0.55;;;;;;;;;;5016299;28;20062;-73
2023/06/22 09:34:53;;;;;;;0.32;0.25;;;;;;;;;;5019845;28;20050;-73
2023/06/22 09:37:19;;;;;;;0.57;0.43;;;;;;;;;;5008822;28;20061;-72
2023/06/22 09:39:46;;;;;;;1.08;0.70;;;;;;;;;;5006762;28;20534;-73
2023/06/22 09:42:15;;;;;;;0.65;0.45;;;;;;;;;;5010606;28;20054;-73
2023/06/22 09:44:44;;;;;;;0.22;0.22;;;;;;;;;;5017617;28;20470;-72
2023/06/22 09:47:10;;;;;;;0.20;0.20;;;;;;;;;;5018169;28;22621;-73
2023/06/22 09:49:37;;;;;;;0.80;0.47;;;;;;;;;;5026119;28;20085;-73
2023/06/22 09:52:13;;;;;;;0.22;0.22;;;;;;;;;;5023346;28;20054;-72
2023/06/22 09:54:40;;;;;;;0.38;0.38;;;;;;;;;;5022999;28;20062;-72
2023/06/22 09:57:06;;;;;;;0.40;0.40;;;;;;;;;;5020911;28;20061;-73
2023/06/22 09:59:33;;;;;;;0.47;0.40;;;;;;;;;;5023451;28;20148;-73
2023/06/22 10:01:59;;;;;;;0.82;0.40;;;;;;;;;;5023712;28;20788;-72
2023/06/22 10:04:26;;;;;;;0.20;0.20;;;;;;;;;;5023138;28;20525;-72
2023/06/22 10:06:53;;;;;;;0.63;0.50;;;;;;;;;;5024083;28;20228;-73
2023/06/22 10:09:21;;;;;;;0.52;0.40;;;;;;;;;;5019554;28;20101;-73
2023/06/22 10:11:47;;;;;;;2.30;0.95;;;;;;;;;;5021485;28;20064;-72
2023/06/22 10:14:14;;;;;;;0.85;0.40;;;;;;;;;;5024207;28;20058;-73
2023/06/22 10:16:41;;;;;;;0.40;0.40;;;;;;;;;;5021005;28;20484;-73
2023/06/22 10:19:08;;;;;;;0.70;0.38;;;;;;;;;;5025553;28;20063;-73
2023/06/22 10:21:34;;;;;;;0.47;0.40;;;;;;;;;;5020078;28;20077;-73
2023/06/22 10:24:06;;;;;;;0.30;0.30;;;;;;;;;;5022805;28;20557;-73
2023/06/22 10:26:33;;;;;;;0.30;0.30;;;;;;;;;;5022802;28;20133;-73
2023/06/22 10:29:00;;;;;;;0.32;0.30;;;;;;;;;;5013295;28;20142;-74
2023/06/22 10:31:32;;;;;;;0.20;0.20;;;;;;;;;;5020165;28;20832;-73
2023/06/22 10:34:02;;;;;;;0.20;0.20;;;;;;;;;;5023466;28;20490;-73
2023/06/22 10:36:29;;;;;;;0.45;0.40;;;;;;;;;;5023462;28;20149;-73
2023/06/22 10:38:55;;;;;;;0.22;0.22;;;;;;;;;;5023170;28;20076;-73
2023/06/22 10:41:22;;;;;;;0.40;0.40;;;;;;;;;;5021664;28;20124;-74
2023/06/22 10:43:48;;;;;;;0.25;0.25;;;;;;;;;;5014726;28;20545;-73
2023/06/22 10:46:15;;;;;;;0.40;0.30;;;;;;;;;;5017867;28;20577;-74
2023/06/22 10:48:41;;;;;;;0.20;0.20;;;;;;;;;;5015991;28;20069;-74
2023/06/22 10:51:08;;;;;;;0.28;0.28;;;;;;;;;;5006593;28;20565;-75
2023/06/22 10:53:34;;;;;;;0.40;0.40;;;;;;;;;;5014440;28;20140;-75
2023/06/22 10:56:01;;;;;;;0.30;0.30;;;;;;;;;;5020557;28;20053;-76
2023/06/22 10:58:27;;;;;;;0.30;0.30;;;;;;;;;;5019760;28;20054;-74
2023/06/22 11:00:54;;;;;;;1.65;0.65;;;;;;;;;;5022448;28;20054;-74
2023/06/22 11:03:20;;;;;;;0.20;0.20;;;;;;;;;;5022093;28;20144;-75
2023/06/22 11:05:47;;;;;;;0.43;0.40;;;;;;;;;;5021734;28;20152;-74
2023/06/22 11:08:14;;;;;;;0.25;0.25;;;;;;;;;;5024225;28;20061;-74
2023/06/22 11:10:41;;;;;;;0.82;0.50;;;;;;;;;;5020799;28;20060;-74
2023/06/22 11:13:09;;;;;;;1.10;0.85;;;;;;;;;;5019236;28;20050;-74
2023/06/22 11:15:39;;;;;;;0.45;0.35;;;;;;;;;;5022338;28;20361;-74
2023/06/22 11:18:06;;;;;;;0.55;0.55;;;;;;;;;;5017134;28;20534;-76
2023/06/22 11:20:38;;;;;;;0.30;0.30;;;;;;;;;;5016657;28;20054;-76
2023/06/22 11:23:06;;;;;;;0.20;0.20;;;;;;;;;;5014836;28;20082;-75
2023/06/22 11:25:34;;;;;;;0.82;0.50;;;;;;;;;;5021743;28;20058;-74
2023/06/22 11:28:01;;;;;;;0.45;0.40;;;;;;;;;;5010382;28;20057;-74
2023/06/22 11:33:16;;;;;;;0.40;0.20;;;;;;;;;;5194160;22;20136;-72
2023/06/22 11:35:42;;;;;;;0.35;0.32;;;;;;;;;;5040704;28;20049;-71
2023/06/22 11:38:09;;;;;;;3.30;0.43;;;;;;;;;;5029829;28;20049;-72
2023/06/22 11:40:41;;;;;;;0.43;0.40;;;;;;;;;;5024316;28;20072;-72
2023/06/22 11:43:08;;;;;;;0.55;0.32;;;;;;;;;;5026772;28;20045;-72
2023/06/22 11:45:34;;;;;;;0.28;0.25;;;;;;;;;;5020703;28;20060;-73
2023/06/22 11:48:00;;;;;;;0.30;0.30;;;;;;;;;;5020534;28;20049;-72
2023/06/22 11:50:29;;;;;;;0.65;0.60;;;;;;;;;;5024127;28;20054;-72
2023/06/22 11:52:57;;;;;;;0.57;0.50;;;;;;;;;;5019454;28;20049;-72
2023/06/22 11:55:29;;;;;;;0.40;0.30;;;;;;;;;;5016316;28;20051;-72
2023/06/22 11:57:58;;;;;;;0.22;0.22;;;;;;;;;;5024292;28;20449;-71
2023/06/22 12:00:25;;;;;;;0.20;0.20;;;;;;;;;;5023596;28;20060;-71
2023/06/22 12:02:58;;;;;;;0.65;0.38;;;;;;;;;;5024610;28;20082;-72
2023/06/22 12:05:29;;;;;;;0.50;0.40;;;;;;;;;;5017875;28;20053;-72
2023/06/22 12:07:56;;;;;;;1.65;0.95;;;;;;;;;;5005789;28;20458;-72
2023/06/22 12:10:22;;;;;;;0.52;0.35;;;;;;;;;;5023127;28;20737;-72
2023/06/22 12:12:49;;;;;;;0.30;0.30;;;;;;;;;;5018333;28;20142;-74
2023/06/22 12:15:15;;;;;;;0.88;0.85;;;;;;;;;;5024437;28;20584;-74
2023/06/22 12:17:42;;;;;;;0.80;0.50;;;;;;;;;;5021358;28;20078;-74
2023/06/22 12:20:08;;;;;;;0.28;0.28;;;;;;;;;;5021514;28;20505;-73
2023/06/22 12:22:37;;;;;;;0.30;0.30;;;;;;;;;;5019281;28;20074;-72
2023/06/22 12:25:04;;;;;;;1.23;0.70;;;;;;;;;;5012773;28;20068;-72
2023/06/22 12:27:30;;;;;;;0.30;0.30;;;;;;;;;;5013437;28;20062;-73
2023/06/22 12:29:57;;;;;;;0.30;0.30;;;;;;;;;;5004664;28;20503;-72
2023/06/22 12:32:24;;;;;;;1.35;0.63;;;;;;;;;;5005902;28;20078;-72
2023/06/22 12:34:50;;;;;;;0.20;0.20;;;;;;;;;;5013562;28;20047;-73
2023/06/22 12:37:17;;;;;;;0.47;0.38;;;;;;;;;;5016691;28;20060;-72
2023/06/22 12:39:43;;;;;;;0.40;0.40;;;;;;;;;;5004870;28;20143;-71
2023/06/22 12:42:11;;;;;;;0.57;0.40;;;;;;;;;;5020324;28;20418;-72
2023/06/22 12:44:38;;;;;;;0.20;0.20;;;;;;;;;;5019253;28;20053;-72
2023/06/22 12:47:05;;;;;;;0.28;0.28;;;;;;;;;;5023404;28;20058;-73
2023/06/22 12:49:31;;;;;;;0.30;0.30;;;;;;;;;;5023748;28;20145;-75
2023/06/22 12:51:58;;;;;;;1.63;1.10;;;;;;;;;;5023871;28;20233;-74
2023/06/22 12:54:24;;;;;;;1.23;0.50;;;;;;;;;;5022069;28;20052;-72
2023/06/22 12:56:50;;;;;;;0.20;0.20;;;;;;;;;;5021268;28;20514;-72
2023/06/22 12:59:19;;;;;;;0.20;0.20;;;;;;;;;;5021152;28;20057;-72
2023/06/22 13:01:45;;;;;;;1.10;0.40;;;;;;;;;;5017324;28;20610;-72
2023/06/22 13:04:14;;;;;;;0.45;0.43;;;;;;;;;;5019096;28;20445;-73
2023/06/22 13:06:47;;;;;;;0.20;0.20;;;;;;;;;;5007599;28;20495;-72
2023/06/22 13:09:15;;;;;;;0.20;0.20;;;;;;;;;;5022341;28;20681;-72
2023/06/22 13:11:47;;;;;;;0.30;0.30;;;;;;;;;;5020577;28;20057;-73
2023/06/22 13:14:13;;;;;;;0.98;0.85;;;;;;;;;;5004402;28;20074;-72
2023/06/22 13:16:40;;;;;;;1.45;0.82;;;;;;;;;;5005827;28;20056;-73
2023/06/22 13:19:06;;;;;;;0.52;0.30;;;;;;;;;;5023221;28;20092;-72
2023/06/22 13:21:34;;;;;;;1.38;0.55;;;;;;;;;;5014336;28;20148;-72
2023/06/22 13:24:01;;;;;;;0.68;0.50;;;;;;;;;;5019426;28;20057;-72
2023/06/22 13:26:28;;;;;;;0.32;0.22;;;;;;;;;;5020036;28;20053;-72
2023/06/22 13:28:55;;;;;;;0.30;0.30;;;;;;;;;;5010620;28;21930;-72
2023/06/22 13:31:21;;;;;;;0.63;0.40;;;;;;;;;;5016220;28;20066;-73
2023/06/22 13:33:48;;;;;;;0.63;0.40;;;;;;;;;;5022260;28;20054;-73
2023/06/22 13:36:15;;;;;;;1.13;0.70;;;;;;;;;;5021162;28;20629;-73
2023/06/22 13:38:42;;;;;;;0.20;0.20;;;;;;;;;;5021983;28;20054;-72
2023/06/22 13:41:08;;;;;;;1.08;0.75;;;;;;;;;;5016878;28;20054;-72
2023/06/22 13:43:34;;;;;;;1.55;1.05;;;;;;;;;;5003708;28;20142;-73
2023/06/22 13:46:01;;;;;;;0.35;0.30;;;;;;;;;;5003554;28;20515;-73
2023/06/22 13:48:28;;;;;;;0.43;0.35;;;;;;;;;;5022172;28;20535;-72
2023/06/22 13:50:54;;;;;;;0.40;0.40;;;;;;;;;;5021643;28;20135;-72
2023/06/22 13:53:21;;;;;;;0.88;0.50;;;;;;;;;;5014243;28;20062;-72
2023/06/22 13:55:47;;;;;;;0.28;0.20;;;;;;;;;;5013841;28;20049;-72
2023/06/22 13:58:14;;;;;;;0.30;0.30;;;;;;;;;;5016034;28;20801;-72
2023/06/22 14:00:40;;;;;;;0.60;0.32;;;;;;;;;;5020824;28;20513;-72
2023/06/22 14:03:06;;;;;;;0.40;0.35;;;;;;;;;;5022355;28;20058;-72
2023/06/22 14:05:33;;;;;;;0.32;0.32;;;;;;;;;;5006947;28;20113;-72
2023/06/22 14:07:59;;;;;;;0.38;0.30;;;;;;;;;;5016172;28;20170;-72
2023/06/22 14:10:26;;;;;;;0.50;0.40;;;;;;;;;;5006631;28;20709;-72
2023/06/22 14:12:53;;;;;;;0.70;0.40;;;;;;;;;;5020909;28;20058;-71
2023/06/22 14:15:21;;;;;;;0.68;0.55;;;;;;;;;;5024054;28;20133;-71
2023/06/22 14:17:48;;;;;;;0.35;0.35;;;;;;;;;;5024502;28;20050;-71
2023/06/22 14:20:14;;;;;;;0.47;0.47;;;;;;;;;;5021979;28;20056;-70
2023/06/22 14:22:42;;;;;;;0.20;0.20;;;;;;;;;;5009373;28;20054;-71
2023/06/22 14:25:08;;;;;;;0.50;0.40;;;;;;;;;;5024076;28;20057;-71
2023/06/22 14:27:35;;;;;;;0.47;0.28;;;;;;;;;;5018908;28;20675;-72
2023/06/22 14:30:01;;;;;;;0.55;0.43;;;;;;;;;;5019071;28;20577;-74
2023/06/22 14:32:32;;;;;;;0.73;0.55;;;;;;;;;;5018142;28;20065;-72
2023/06/22 14:34:58;;;;;;;0.32;0.30;;;;;;;;;;5025635;28;20061;-72
2023/06/22 14:37:25;;;;;;;0.35;0.35;;;;;;;;;;5016266;28;20122;-74
2023/06/22 14:39:51;;;;;;;0.25;0.25;;;;;;;;;;5015726;28;20795;-73
2023/06/22 14:42:21;;;;;;;1.23;1.13;;;;;;;;;;5016470;28;20128;-74
2023/06/22 14:44:48;;;;;;;0.63;0.40;;;;;;;;;;5020168;28;20054;-74
2023/06/22 14:47:15;;;;;;;0.20;0.20;;;;;;;;;;5020727;28;20082;-74
2023/06/22 14:49:41;;;;;;;0.20;0.20;;;;;;;;;;5008623;28;20066;-73